Time;durP1;ratioP1;P1;durP2;ratioP2;P2;SDS_P1;SDS_P2;PMS_P1;PMS_P2;Temp;Humidity;BMP_temperature;BMP_pressure;BME280_temperature;BME280_humidity;BME280_pressure;Samples;Min_cycle;Max_cycle;Signal;HPM_P1;HPM_P2
2022/07/26 00:01:31;;;;;;;6.43;1.23;;;20.90;97.60;;;;;;4956767;28;20255;-89
2022/07/26 00:03:58;;;;;;;5.05;1.52;;;20.90;97.60;;;;;;4966182;28;20193;-91
2022/07/26 00:06:24;;;;;;;6.80;2.03;;;20.80;97.50;;;;;;4950415;28;20193;-89
2022/07/26 00:08:50;;;;;;;5.10;1.30;;;20.80;97.90;;;;;;4938542;28;20212;-89
2022/07/26 00:11:16;;;;;;;3.55;1.40;;;20.70;97.90;;;;;;4941795;28;20225;-89
2022/07/26 00:13:43;;;;;;;2.33;1.15;;;20.70;97.80;;;;;;4954570;28;20191;-89
2022/07/26 00:16:09;;;;;;;4.13;1.25;;;20.70;97.90;;;;;;4958742;28;20239;-90
2022/07/26 00:18:35;;;;;;;4.43;1.67;;;20.70;97.70;;;;;;4949946;28;20184;-89
2022/07/26 00:21:00;;;;;;;4.72;1.40;;;20.60;97.70;;;;;;4954512;28;20220;-89
2022/07/26 00:23:26;;;;;;;5.95;1.60;;;20.60;97.60;;;;;;4958616;28;20267;-89
2022/07/26 00:25:52;;;;;;;4.80;1.60;;;20.60;97.60;;;;;;4945558;28;20192;-90
2022/07/26 00:28:18;;;;;;;3.95;1.38;;;20.50;97.60;;;;;;4952003;29;20217;-91
2022/07/26 00:30:45;;;;;;;4.07;1.45;;;20.50;97.80;;;;;;4948045;28;20292;-90
2022/07/26 00:33:18;;;;;;;2.58;1.33;;;20.40;97.70;;;;;;4951430;28;20180;-90
2022/07/26 00:35:43;;;;;;;5.13;1.40;;;20.30;98.00;;;;;;4958730;28;20251;-89
2022/07/26 00:38:09;;;;;;;3.67;1.30;;;20.30;97.70;;;;;;4953891;28;20625;-90
2022/07/26 00:40:35;;;;;;;4.32;1.15;;;20.30;97.70;;;;;;4953145;28;20181;-89
2022/07/26 00:43:00;;;;;;;5.10;1.35;;;20.30;97.60;;;;;;4942623;28;20194;-90
2022/07/26 00:45:26;;;;;;;2.55;1.20;;;20.30;97.50;;;;;;4948673;28;20275;-89
2022/07/26 00:47:52;;;;;;;4.38;1.20;;;20.30;97.20;;;;;;4939047;29;20214;-89
2022/07/26 00:50:18;;;;;;;4.78;1.48;;;20.30;97.10;;;;;;4923917;29;20234;-89
2022/07/26 00:52:45;;;;;;;2.17;1.30;;;20.30;97.00;;;;;;4929366;29;20285;-90
2022/07/26 00:55:12;;;;;;;2.80;0.90;;;20.30;97.00;;;;;;4927004;29;20243;-89
2022/07/26 00:57:39;;;;;;;3.45;1.20;;;20.30;96.90;;;;;;4932190;29;20253;-91
2022/07/26 01:00:08;;;;;;;3.35;1.40;;;20.30;97.00;;;;;;4928178;29;20280;-90
2022/07/26 01:02:33;;;;;;;8.13;1.63;;;20.30;96.80;;;;;;4925070;29;20190;-89
2022/07/26 01:05:03;;;;;;;2.90;1.48;;;20.30;97.00;;;;;;4931964;29;20613;-92
2022/07/26 01:07:29;;;;;;;4.65;1.13;;;20.20;97.10;;;;;;4927400;29;20641;-90
2022/07/26 01:09:54;;;;;;;5.55;1.13;;;20.10;97.30;;;;;;4920878;29;20675;-91
2022/07/26 01:12:20;;;;;;;8.32;1.35;;;20.10;97.40;;;;;;4921447;29;20186;-89
2022/07/26 01:14:47;;;;;;;3.75;1.20;;;20.10;97.30;;;;;;4929341;29;20512;-89
2022/07/26 01:17:13;;;;;;;3.88;1.30;;;20.00;97.30;;;;;;4922228;29;20186;-88
2022/07/26 01:19:39;;;;;;;4.93;1.50;;;20.00;97.30;;;;;;4921253;29;20197;-91
2022/07/26 01:22:05;;;;;;;6.00;1.50;;;20.00;97.20;;;;;;4926039;29;20190;-90
2022/07/26 01:24:33;;;;;;;3.13;1.20;;;20.00;97.20;;;;;;4932015;29;20189;-91
2022/07/26 01:26:58;;;;;;;2.60;1.30;;;20.00;97.50;;;;;;4937621;29;20190;-91
2022/07/26 01:29:24;;;;;;;5.20;1.23;;;20.00;97.60;;;;;;4929387;29;20229;-92
2022/07/26 01:31:50;;;;;;;4.57;1.33;;;19.90;97.30;;;;;;4940945;29;20229;-92
2022/07/26 01:34:17;;;;;;;3.72;1.10;;;19.90;97.60;;;;;;4937870;29;20190;-92
2022/07/26 01:36:43;;;;;;;5.55;1.30;;;19.90;97.50;;;;;;4934532;29;20186;-92
2022/07/26 01:39:09;;;;;;;6.00;1.65;;;19.80;97.70;;;;;;4932967;29;20250;-92
2022/07/26 01:41:34;;;;;;;3.22;1.45;;;19.80;97.60;;;;;;4938851;29;20197;-92
2022/07/26 01:44:08;;;;;;;3.63;1.10;;;19.80;97.50;;;;;;4939361;29;20220;-91
2022/07/26 01:46:35;;;;;;;2.47;1.13;;;19.80;97.50;;;;;;4933352;29;20185;-91
2022/07/26 01:49:00;;;;;;;7.75;1.60;;;19.80;97.60;;;;;;4933836;28;20217;-93
2022/07/26 01:51:26;;;;;;;4.63;1.23;;;19.80;97.60;;;;;;4949003;29;20201;-92
2022/07/26 01:53:52;;;;;;;4.38;1.25;;;19.90;97.70;;;;;;4942967;29;20189;-92
2022/07/26 01:56:42;;;;;;;7.60;1.48;;;19.90;97.70;;;;;;4943127;29;20192;-93
2022/07/26 01:59:08;;;;;;;4.45;1.52;;;19.90;97.70;;;;;;4951206;29;20181;-91
2022/07/26 02:01:33;;;;;;;4.35;1.50;;;19.90;97.60;;;;;;4942765;29;20638;-91
2022/07/26 02:03:59;;;;;;;3.40;1.27;;;19.90;97.60;;;;;;4954769;28;20191;-90
2022/07/26 02:06:39;;;;;;;4.28;1.40;;;19.90;97.60;;;;;;4255130;22;20241;-89
2022/07/26 02:09:05;;;;;;;4.10;1.23;;;19.90;97.60;;;;;;4959895;28;20688;-91
2022/07/26 02:11:31;;;;;;;5.97;1.52;;;19.90;97.80;;;;;;4988009;28;20191;-91
2022/07/26 02:13:56;;;;;;;5.05;1.67;;;19.90;97.70;;;;;;4971218;28;20711;-90
2022/07/26 02:16:23;;;;;;;4.70;1.30;;;19.90;97.70;;;;;;4972496;28;20687;-91
2022/07/26 02:18:48;;;;;;;7.55;1.70;;;19.90;97.70;;;;;;4984048;28;20194;-91
2022/07/26 02:21:14;;;;;;;5.30;1.58;;;19.90;97.70;;;;;;4958784;28;20556;-91
2022/07/26 02:23:41;;;;;;;8.95;1.35;;;19.90;97.80;;;;;;4980588;28;20204;-90
2022/07/26 02:26:07;;;;;;;4.85;1.38;;;19.90;97.80;;;;;;4956445;28;20201;-90
2022/07/26 02:28:33;;;;;;;3.17;1.25;;;19.90;97.80;;;;;;4974045;28;20216;-90
2022/07/26 02:30:59;;;;;;;3.83;1.30;;;19.90;97.80;;;;;;4958582;28;20243;-91
2022/07/26 02:33:24;;;;;;;5.82;1.38;;;19.90;97.80;;;;;;4960185;28;20192;-91
2022/07/26 02:35:50;;;;;;;2.17;1.20;;;19.90;97.90;;;;;;4969115;28;20187;-90
2022/07/26 02:38:16;;;;;;;5.85;1.70;;;19.90;97.90;;;;;;4968544;28;20188;-91
2022/07/26 02:40:42;;;;;;;4.90;1.80;;;19.90;98.10;;;;;;4961623;28;20189;-91
2022/07/26 02:43:09;;;;;;;5.00;1.58;;;19.80;98.20;;;;;;4965561;28;20484;-89
2022/07/26 02:45:35;;;;;;;3.03;1.42;;;19.70;98.50;;;;;;4965516;28;20531;-90
2022/07/26 02:48:00;;;;;;;3.47;1.33;;;19.80;98.50;;;;;;4965941;28;20215;-90
2022/07/26 02:50:27;;;;;;;5.85;1.27;;;19.80;98.50;;;;;;4985407;28;20211;-91
2022/07/26 02:52:54;;;;;;;6.60;1.83;;;19.70;98.60;;;;;;4945703;28;20207;-90
2022/07/26 02:55:22;;;;;;;3.97;1.17;;;19.70;98.80;;;;;;4994018;28;20737;-91
2022/07/26 02:57:48;;;;;;;4.05;1.60;;;19.70;98.80;;;;;;4965610;28;20200;-90
2022/07/26 03:00:20;;;;;;;5.35;1.35;;;19.70;98.90;;;;;;4972465;28;20202;-90
2022/07/26 03:02:47;;;;;;;3.60;1.52;;;19.70;99.00;;;;;;4991313;28;20248;-90
2022/07/26 03:05:13;;;;;;;4.88;1.70;;;19.70;99.00;;;;;;4959054;28;20180;-90
2022/07/26 03:07:39;;;;;;;5.90;1.67;;;19.70;99.00;;;;;;4988689;28;20281;-90
2022/07/26 03:10:06;;;;;;;5.57;1.35;;;19.70;99.10;;;;;;4994455;28;20575;-90
2022/07/26 03:12:32;;;;;;;4.13;1.67;;;19.70;99.00;;;;;;4961183;28;20191;-91
2022/07/26 03:14:57;;;;;;;2.58;1.40;;;19.70;98.90;;;;;;4967425;28;20191;-90
2022/07/26 03:17:24;;;;;;;3.28;1.10;;;19.70;98.90;;;;;;4964613;28;20687;-90
2022/07/26 03:19:50;;;;;;;5.72;1.25;;;19.70;98.90;;;;;;4966572;28;20556;-92
2022/07/26 03:22:16;;;;;;;4.10;1.35;;;19.70;99.00;;;;;;4964248;28;20199;-90
2022/07/26 03:24:42;;;;;;;5.60;1.50;;;19.60;98.70;;;;;;4957228;28;20192;-91
2022/07/26 03:27:07;;;;;;;5.07;1.30;;;19.60;98.90;;;;;;4957264;28;20287;-91
2022/07/26 03:29:33;;;;;;;3.72;0.90;;;19.70;99.00;;;;;;4967451;28;20204;-90
2022/07/26 03:31:59;;;;;;;3.53;1.17;;;19.70;98.90;;;;;;4974375;28;20187;-91
2022/07/26 03:34:26;;;;;;;7.18;1.42;;;19.70;98.80;;;;;;4967766;28;20219;-90
2022/07/26 03:36:51;;;;;;;3.33;1.10;;;19.70;98.80;;;;;;4963502;28;20213;-91
2022/07/26 03:39:17;;;;;;;1.67;0.90;;;19.60;98.70;;;;;;4968972;28;20184;-91
2022/07/26 03:41:43;;;;;;;3.90;1.27;;;19.60;98.60;;;;;;4965645;28;20667;-90
2022/07/26 03:44:08;;;;;;;3.95;0.95;;;19.60;98.50;;;;;;4965397;28;20206;-91
2022/07/26 03:46:34;;;;;;;4.55;1.20;;;19.60;98.50;;;;;;4946588;28;20245;-90
2022/07/26 03:49:00;;;;;;;3.72;1.10;;;19.60;98.50;;;;;;4948823;28;20223;-90
2022/07/26 03:51:26;;;;;;;7.13;1.50;;;19.70;98.50;;;;;;4970118;28;20189;-90
2022/07/26 03:53:52;;;;;;;3.97;1.10;;;19.60;98.70;;;;;;4975514;28;20199;-92
2022/07/26 03:56:27;;;;;;;6.80;1.40;;;19.60;98.70;;;;;;4976115;28;20203;-91
2022/07/26 03:58:54;;;;;;;2.42;1.13;;;19.60;98.80;;;;;;4952236;28;20990;-89
2022/07/26 04:01:20;;;;;;;1.58;0.85;;;19.60;98.90;;;;;;4964609;28;20192;-91
2022/07/26 04:03:45;;;;;;;5.13;1.08;;;19.60;98.70;;;;;;4959590;28;20262;-90
2022/07/26 04:06:11;;;;;;;2.80;0.98;;;19.70;98.70;;;;;;4961016;28;20215;-91
2022/07/26 04:08:37;;;;;;;6.75;1.00;;;19.70;98.70;;;;;;4956165;28;20229;-91
2022/07/26 04:11:03;;;;;;;3.72;1.15;;;19.70;98.70;;;;;;4945170;29;20189;-90
2022/07/26 04:13:29;;;;;;;5.75;1.05;;;19.70;98.60;;;;;;4948144;29;20193;-90
2022/07/26 04:15:54;;;;;;;2.50;0.88;;;19.70;98.70;;;;;;4944555;28;20189;-91
2022/07/26 04:18:20;;;;;;;3.17;0.90;;;19.70;98.50;;;;;;4948777;28;20217;-91
2022/07/26 04:20:46;;;;;;;4.75;1.02;;;19.70;98.40;;;;;;4949837;29;20193;-90
2022/07/26 04:23:12;;;;;;;2.63;1.08;;;19.70;98.40;;;;;;4943114;29;20190;-91
2022/07/26 04:25:38;;;;;;;3.13;1.15;;;19.70;98.30;;;;;;4933976;29;20296;-91
2022/07/26 04:28:04;;;;;;;1.90;0.90;;;19.70;98.50;;;;;;4933642;29;20299;-91
2022/07/26 04:30:30;;;;;;;2.63;0.90;;;19.70;98.50;;;;;;4934068;29;20699;-91
2022/07/26 04:32:55;;;;;;;2.03;0.90;;;19.70;98.50;;;;;;4945459;29;20181;-91
2022/07/26 04:35:21;;;;;;;3.00;1.10;;;19.70;98.60;;;;;;4947259;29;20563;-91
2022/07/26 04:37:47;;;;;;;6.10;1.15;;;19.70;98.50;;;;;;4942917;29;20216;-91
2022/07/26 04:40:18;;;;;;;3.15;1.05;;;19.80;98.50;;;;;;4949787;29;20193;-91
2022/07/26 04:42:44;;;;;;;3.75;1.15;;;19.80;98.50;;;;;;4946958;29;20248;-89
2022/07/26 04:45:11;;;;;;;3.38;1.20;;;19.80;98.60;;;;;;4952664;29;20189;-91
2022/07/26 04:47:44;;;;;;;4.00;0.85;;;19.80;98.60;;;;;;4947273;28;20209;-91
2022/07/26 04:50:11;;;;;;;1.85;0.90;;;19.80;98.60;;;;;;4950175;29;20236;-91
2022/07/26 04:52:36;;;;;;;3.65;0.90;;;19.90;98.60;;;;;;4953285;29;20532;-90
2022/07/26 04:55:05;;;;;;;3.53;1.10;;;20.00;98.50;;;;;;4943711;29;20193;-90
2022/07/26 04:57:32;;;;;;;4.10;0.80;;;20.10;98.60;;;;;;4941767;29;20212;-90
2022/07/26 05:00:01;;;;;;;3.00;0.98;;;20.20;98.60;;;;;;4949240;29;20200;-90
2022/07/26 05:02:26;;;;;;;3.95;1.10;;;20.30;98.40;;;;;;4949621;29;20697;-90
2022/07/26 05:04:52;;;;;;;4.80;1.20;;;20.30;98.30;;;;;;4951081;29;20281;-90
2022/07/26 05:07:18;;;;;;;3.28;1.10;;;20.40;98.30;;;;;;4949262;28;20241;-91
2022/07/26 05:09:46;;;;;;;2.83;0.90;;;20.40;98.30;;;;;;4947321;29;20700;-90
2022/07/26 05:12:12;;;;;;;4.97;1.00;;;20.40;98.20;;;;;;4953520;28;20185;-90
2022/07/26 05:14:38;;;;;;;6.25;1.30;;;20.40;98.40;;;;;;4952373;29;20184;-90
2022/07/26 05:17:05;;;;;;;4.63;1.00;;;20.40;98.50;;;;;;4938844;29;20216;-91
2022/07/26 05:19:30;;;;;;;4.65;1.05;;;20.40;98.20;;;;;;4952453;29;20193;-91
2022/07/26 05:21:56;;;;;;;5.93;1.00;;;20.50;98.40;;;;;;4944304;29;20240;-91
2022/07/26 05:24:22;;;;;;;4.40;1.20;;;20.50;98.30;;;;;;4938699;28;20184;-91
2022/07/26 05:26:48;;;;;;;3.75;1.08;;;20.50;98.20;;;;;;4939613;29;20210;-91
2022/07/26 05:29:13;;;;;;;6.60;1.52;;;20.60;98.30;;;;;;4940981;29;20329;-92
2022/07/26 05:31:39;;;;;;;6.05;1.42;;;20.70;98.30;;;;;;4942413;29;20276;-90
2022/07/26 05:34:05;;;;;;;5.90;1.13;;;20.80;98.00;;;;;;4946437;29;20193;-92
2022/07/26 05:36:31;;;;;;;3.55;1.02;;;20.80;98.10;;;;;;4945337;28;20624;-90
2022/07/26 05:38:56;;;;;;;7.88;1.30;;;20.80;98.00;;;;;;4952340;29;20185;-91
2022/07/26 05:41:22;;;;;;;7.43;1.52;;;20.70;98.30;;;;;;4943953;29;20194;-94
2022/07/26 05:43:48;;;;;;;4.43;1.23;;;20.70;98.20;;;;;;4942137;29;20213;-90
2022/07/26 05:46:17;;;;;;;4.82;1.30;;;20.70;98.80;;;;;;4952084;28;20681;-91
2022/07/26 05:48:43;;;;;;;5.88;1.20;;;20.70;98.40;;;;;;4936185;29;20673;-90
2022/07/26 05:51:09;;;;;;;3.47;1.30;;;20.60;98.60;;;;;;4952411;29;20185;-91
2022/07/26 05:53:36;;;;;;;2.33;1.33;;;20.70;98.60;;;;;;4952264;29;20177;-92
2022/07/26 05:56:02;;;;;;;6.05;1.45;;;20.70;98.70;;;;;;4943645;28;20189;-91
2022/07/26 05:58:28;;;;;;;4.88;1.27;;;20.80;98.70;;;;;;4934165;29;20202;-91
2022/07/26 06:00:54;;;;;;;5.57;1.83;;;20.90;98.80;;;;;;4918560;29;20238;-90
2022/07/26 06:03:22;;;;;;;9.07;1.40;;;20.90;98.80;;;;;;4917456;29;20267;-91
2022/07/26 06:05:50;;;;;;;4.43;1.40;;;21.00;98.50;;;;;;4917059;29;20631;-89
2022/07/26 06:08:16;;;;;;;3.33;1.27;;;21.10;98.50;;;;;;4936572;29;20241;-90
2022/07/26 06:10:41;;;;;;;4.93;1.80;;;21.10;98.50;;;;;;4937291;29;20290;-91
2022/07/26 06:13:07;;;;;;;7.43;1.63;;;21.10;98.40;;;;;;4938833;29;20605;-91
2022/07/26 06:15:33;;;;;;;5.18;1.70;;;21.10;98.50;;;;;;4936057;29;20536;-92
2022/07/26 06:17:58;;;;;;;6.43;1.67;;;21.10;98.70;;;;;;4936350;29;20208;-91
2022/07/26 06:20:24;;;;;;;5.65;1.30;;;21.00;98.80;;;;;;4936565;29;20210;-90
2022/07/26 06:22:51;;;;;;;6.00;1.77;;;21.10;98.80;;;;;;4936862;29;20249;-90
2022/07/26 06:25:17;;;;;;;5.72;1.30;;;21.20;98.70;;;;;;4935458;29;20246;-91
2022/07/26 06:27:43;;;;;;;5.43;1.70;;;21.20;98.40;;;;;;4935146;29;20206;-94
2022/07/26 06:30:11;;;;;;;4.43;1.58;;;21.20;98.40;;;;;;4934819;29;20665;-92
2022/07/26 06:32:36;;;;;;;5.95;1.50;;;21.20;98.40;;;;;;4935843;29;20182;-91
2022/07/26 06:35:02;;;;;;;3.53;1.38;;;21.20;98.50;;;;;;4925201;29;20196;-91
2022/07/26 06:37:28;;;;;;;7.72;1.95;;;21.20;98.70;;;;;;4935713;29;20300;-90
2022/07/26 06:39:53;;;;;;;6.35;1.65;;;21.40;98.80;;;;;;4937497;29;20182;-91
2022/07/26 06:42:19;;;;;;;4.43;1.88;;;21.40;98.70;;;;;;4941788;29;20192;-90
2022/07/26 06:44:45;;;;;;;3.83;1.67;;;21.40;98.40;;;;;;4955376;29;20188;-91
2022/07/26 06:47:10;;;;;;;6.10;1.75;;;21.50;98.50;;;;;;4945567;28;20252;-91
2022/07/26 06:49:36;;;;;;;5.07;1.60;;;21.50;98.40;;;;;;4935243;29;20210;-91
2022/07/26 06:52:02;;;;;;;5.82;1.33;;;21.60;98.60;;;;;;4935056;29;20264;-90
2022/07/26 06:54:28;;;;;;;7.22;1.65;;;21.60;98.50;;;;;;4935028;29;20178;-90
2022/07/26 06:56:53;;;;;;;5.15;1.77;;;21.70;98.30;;;;;;4933766;29;20206;-91
2022/07/26 06:59:19;;;;;;;6.00;1.75;;;21.80;98.50;;;;;;4935188;29;20237;-90
2022/07/26 07:01:45;;;;;;;5.45;1.75;;;21.80;98.10;;;;;;4943474;29;20193;-91
2022/07/26 07:04:10;;;;;;;7.05;1.85;;;21.90;97.20;;;;;;4943592;29;20224;-91
2022/07/26 07:06:36;;;;;;;5.07;1.55;;;21.80;97.50;;;;;;4953717;28;20308;-90
2022/07/26 07:09:02;;;;;;;5.80;1.75;;;21.70;97.80;;;;;;4992370;28;20227;-90
2022/07/26 07:11:28;;;;;;;6.00;1.58;;;21.70;97.70;;;;;;4962911;28;20600;-90
2022/07/26 07:13:54;;;;;;;4.20;1.60;;;21.60;97.80;;;;;;4956683;28;20168;-90
2022/07/26 07:16:19;;;;;;;6.93;1.70;;;21.60;98.40;;;;;;4956542;28;20236;-92
2022/07/26 07:18:45;;;;;;;8.73;1.52;;;21.90;98.40;;;;;;4957289;28;20208;-90
2022/07/26 07:21:10;;;;;;;5.72;1.75;;;22.10;97.40;;;;;;4956404;28;20211;-90
2022/07/26 07:23:37;;;;;;;5.38;1.70;;;22.20;97.20;;;;;;4939941;29;20446;-90
2022/07/26 07:26:02;;;;;;;4.88;1.55;;;22.30;97.30;;;;;;4939232;28;20161;-90
2022/07/26 07:28:28;;;;;;;6.97;1.90;;;22.50;96.40;;;;;;4953119;28;20226;-90
2022/07/26 07:30:54;;;;;;;3.53;1.40;;;22.60;96.40;;;;;;4941783;29;20244;-90
2022/07/26 07:33:21;;;;;;;5.05;2.13;;;22.70;96.40;;;;;;4953805;28;20177;-89
2022/07/26 07:35:46;;;;;;;5.75;1.92;;;22.70;96.00;;;;;;4956580;28;20190;-90
2022/07/26 07:38:12;;;;;;;3.40;1.33;;;22.70;96.00;;;;;;4972949;28;20195;-90
2022/07/26 07:40:38;;;;;;;4.30;1.52;;;22.70;95.80;;;;;;4993848;28;20647;-90
2022/07/26 07:43:10;;;;;;;7.13;2.00;;;22.60;96.10;;;;;;4956656;28;20277;-90
2022/07/26 07:45:36;;;;;;;6.20;2.03;;;22.50;96.30;;;;;;4971626;28;20226;-91
2022/07/26 07:48:02;;;;;;;5.50;1.77;;;22.40;96.20;;;;;;4950858;28;20225;-90
2022/07/26 07:50:28;;;;;;;6.35;1.70;;;22.40;96.60;;;;;;4954848;28;20169;-90
2022/07/26 07:52:54;;;;;;;4.40;1.58;;;22.60;96.30;;;;;;4943151;28;20647;-90
2022/07/26 07:55:20;;;;;;;3.05;1.40;;;22.80;96.60;;;;;;4956623;28;20175;-90
2022/07/26 07:57:45;;;;;;;4.72;1.60;;;23.00;96.00;;;;;;4949523;28;20207;-90
2022/07/26 08:00:14;;;;;;;5.70;1.60;;;23.00;95.50;;;;;;4954808;29;20169;-90
2022/07/26 08:02:40;;;;;;;8.85;1.60;;;23.20;95.90;;;;;;4936757;28;20616;-89
2022/07/26 08:05:08;;;;;;;4.30;1.30;;;23.20;95.20;;;;;;4962852;28;20223;-90
2022/07/26 08:07:33;;;;;;;4.03;1.70;;;23.20;94.80;;;;;;4975781;28;20227;-91
2022/07/26 08:09:59;;;;;;;5.68;2.15;;;23.00;95.10;;;;;;4970472;28;20223;-90
2022/07/26 08:12:25;;;;;;;3.45;1.40;;;23.00;95.70;;;;;;4954262;29;20165;-90
2022/07/26 08:14:51;;;;;;;2.42;1.20;;;23.20;95.20;;;;;;4955037;28;20196;-91
2022/07/26 08:17:16;;;;;;;3.63;1.30;;;23.50;94.70;;;;;;4937796;29;20207;-90
2022/07/26 08:19:42;;;;;;;2.33;1.13;;;23.70;94.60;;;;;;4940397;28;20197;-93
2022/07/26 08:22:09;;;;;;;3.95;1.30;;;23.90;94.00;;;;;;4956322;28;20590;-91
2022/07/26 08:24:34;;;;;;;5.45;1.83;;;24.00;93.50;;;;;;4955072;28;20641;-89
2022/07/26 08:27:00;;;;;;;5.60;1.38;;;23.80;93.40;;;;;;4972459;28;20224;-89
2022/07/26 08:29:26;;;;;;;8.48;1.42;;;23.70;93.90;;;;;;4973057;28;20200;-90
2022/07/26 08:31:53;;;;;;;6.10;1.25;;;23.80;94.20;;;;;;4954929;28;20654;-89
2022/07/26 08:34:20;;;;;;;2.45;1.10;;;24.00;93.90;;;;;;4958915;28;20188;-89
2022/07/26 08:36:46;;;;;;;2.55;1.10;;;24.20;93.50;;;;;;4960070;28;20211;-89
2022/07/26 08:39:12;;;;;;;6.07;1.30;;;24.50;91.50;;;;;;4955495;28;20187;-90
2022/07/26 08:41:41;;;;;;;4.63;1.50;;;24.30;91.70;;;;;;4955531;28;20185;-90
2022/07/26 08:44:10;;;;;;;3.55;1.27;;;23.90;91.80;;;;;;4955459;28;20299;-90
2022/07/26 08:46:40;;;;;;;5.30;1.30;;;23.40;93.20;;;;;;4955890;28;20200;-89
2022/07/26 08:49:11;;;;;;;3.28;1.30;;;23.10;93.50;;;;;;4952419;28;20197;-89
2022/07/26 08:51:43;;;;;;;6.65;1.40;;;23.00;94.10;;;;;;4950775;28;20558;-89
2022/07/26 08:54:13;;;;;;;4.28;1.13;;;23.10;93.50;;;;;;4955113;28;20184;-90
2022/07/26 08:56:58;;;;;;;2.78;1.45;;;23.30;93.20;;;;;;4955540;28;20279;-89
2022/07/26 08:59:24;;;;;;;2.67;1.10;;;23.30;92.60;;;;;;4955305;28;20188;-90
2022/07/26 09:01:56;;;;;;;4.57;1.38;;;23.20;92.70;;;;;;4954429;28;20237;-90
2022/07/26 09:04:26;;;;;;;2.50;1.27;;;23.00;93.20;;;;;;4955756;28;20196;-89
2022/07/26 09:07:01;;;;;;;2.90;1.25;;;22.80;93.30;;;;;;4967029;28;20201;-89
2022/07/26 09:09:27;;;;;;;3.53;1.20;;;22.70;93.30;;;;;;4955378;28;20212;-89
2022/07/26 09:11:54;;;;;;;3.10;1.45;;;22.50;93.20;;;;;;4955117;28;20274;-90
2022/07/26 09:14:20;;;;;;;3.08;1.48;;;22.40;93.50;;;;;;4955099;28;20589;-89
2022/07/26 09:16:57;;;;;;;7.07;1.45;;;22.20;93.70;;;;;;4955790;28;20200;-89
2022/07/26 09:19:25;;;;;;;3.42;1.55;;;22.10;94.00;;;;;;4942119;29;20283;-90
2022/07/26 09:21:52;;;;;;;5.70;2.03;;;21.80;97.10;;;;;;4936509;29;20177;-91
2022/07/26 09:24:41;;;;;;;5.15;1.70;;;21.40;99.90;;;;;;4971934;28;20192;-91
2022/07/26 09:27:10;;;;;;;2.70;1.20;;;20.80;99.90;;;;;;4956614;28;20205;-90
2022/07/26 09:29:48;;;;;;;1.98;1.10;;;20.30;99.90;;;;;;4957461;28;20196;-91
2022/07/26 09:32:18;;;;;;;3.47;1.00;;;19.90;99.90;;;;;;4956797;28;20200;-90
2022/07/26 09:34:49;;;;;;;3.45;0.88;;;19.60;99.90;;;;;;4958453;28;20188;-94
2022/07/26 09:37:15;;;;;;;2.25;0.90;;;19.30;99.90;;;;;;4960811;28;20204;-91
2022/07/26 09:39:59;;;;;;;1.05;0.90;;;19.10;99.90;;;;;;4975416;28;20552;-93
2022/07/26 09:42:26;;;;;;;1.80;0.88;;;18.90;99.90;;;;;;4974840;28;20587;-92
2022/07/26 09:44:53;;;;;;;1.58;0.93;;;18.80;99.90;;;;;;4972885;28;20228;-92
2022/07/26 09:47:20;;;;;;;1.65;1.00;;;18.60;99.90;;;;;;4972558;28;20302;-93
2022/07/26 09:49:46;;;;;;;1.50;0.98;;;18.50;99.90;;;;;;4951093;28;20204;-92
2022/07/26 09:52:21;;;;;;;3.13;1.10;;;18.50;99.90;;;;;;4958693;28;20164;-91
2022/07/26 09:54:48;;;;;;;2.35;0.95;;;18.50;99.90;;;;;;4956460;28;20183;-93
2022/07/26 09:57:19;;;;;;;3.83;1.08;;;18.60;99.90;;;;;;4959157;28;20287;-93
2022/07/26 09:59:46;;;;;;;2.03;1.05;;;18.70;99.90;;;;;;4958752;28;20523;-93
2022/07/26 10:02:13;;;;;;;1.75;0.90;;;18.70;99.90;;;;;;4958682;28;20188;-94
2022/07/26 10:04:40;;;;;;;2.17;0.90;;;18.70;99.90;;;;;;4960126;28;20226;-93
2022/07/26 10:07:06;;;;;;;2.50;1.20;;;18.80;99.90;;;;;;4960103;28;20239;-90
2022/07/26 10:09:39;;;;;;;6.50;1.20;;;18.90;99.90;;;;;;4958750;28;20296;-91
2022/07/26 10:12:07;;;;;;;2.20;1.20;;;19.00;99.90;;;;;;4957104;28;20199;-90
2022/07/26 10:14:35;;;;;;;3.45;1.40;;;19.00;99.90;;;;;;4958088;28;20180;-91
2022/07/26 10:17:33;;;;;;;2.42;0.98;;;19.00;99.90;;;;;;4978470;28;20200;-91
2022/07/26 10:20:06;;;;;;;1.73;1.08;;;19.10;99.90;;;;;;4958368;28;20193;-90
2022/07/26 10:22:44;;;;;;;2.50;1.40;;;19.20;99.90;;;;;;4961257;28;20180;-90
2022/07/26 10:25:31;;;;;;;1.88;1.17;;;19.30;99.90;;;;;;4961869;28;20805;-90
2022/07/26 10:27:57;;;;;;;3.40;1.60;;;19.40;99.90;;;;;;4934511;29;20209;-92
2022/07/26 10:30:25;;;;;;;6.85;1.60;;;19.50;99.90;;;;;;4959715;28;20212;-90
2022/07/26 10:32:58;;;;;;;2.88;1.58;;;19.60;99.90;;;;;;4963884;28;20312;-90
2022/07/26 10:35:39;;;;;;;2.60;1.75;;;19.80;99.90;;;;;;4977428;28;20648;-90
2022/07/26 10:38:10;;;;;;;4.35;1.60;;;19.90;99.90;;;;;;4982123;28;20216;-91
2022/07/26 10:40:42;;;;;;;1.55;1.25;;;20.00;99.90;;;;;;4982976;28;20183;-91
2022/07/26 10:43:15;;;;;;;4.15;1.30;;;20.00;99.90;;;;;;4982662;28;20191;-91
2022/07/26 10:45:43;;;;;;;2.58;1.75;;;20.00;99.90;;;;;;4982422;28;20187;-90
2022/07/26 10:48:21;;;;;;;1.83;1.40;;;20.00;99.90;;;;;;4973050;28;20234;-89
2022/07/26 10:50:51;;;;;;;5.60;1.40;;;19.90;99.90;;;;;;4982900;28;20231;-90
2022/07/26 10:53:18;;;;;;;2.20;1.45;;;19.80;99.90;;;;;;4982531;28;20699;-91
2022/07/26 10:55:48;;;;;;;2.40;1.50;;;19.60;99.90;;;;;;4982520;28;20180;-89
2022/07/26 10:58:14;;;;;;;1.77;1.15;;;19.60;99.90;;;;;;4982428;28;20266;-90
2022/07/26 11:00:40;;;;;;;1.83;1.30;;;19.60;99.90;;;;;;4982699;28;20678;-90
2022/07/26 11:03:05;;;;;;;3.25;1.40;;;19.70;99.90;;;;;;4977936;28;20207;-90
2022/07/26 11:05:33;;;;;;;3.13;1.50;;;19.80;99.90;;;;;;4975950;28;20242;-90
2022/07/26 11:08:07;;;;;;;3.00;1.20;;;20.00;99.90;;;;;;4995606;28;20315;-90
2022/07/26 11:10:45;;;;;;;2.45;1.08;;;20.20;99.90;;;;;;4982505;28;20184;-89
2022/07/26 11:13:12;;;;;;;3.05;1.60;;;20.40;99.90;;;;;;4977166;28;20199;-89
2022/07/26 11:15:41;;;;;;;2.60;1.20;;;20.60;99.90;;;;;;4962601;28;20185;-89
2022/07/26 11:18:34;;;;;;;2.60;0.85;;;20.70;99.90;;;;;;4963677;28;20219;-89
2022/07/26 11:21:14;;;;;;;2.08;0.90;;;20.70;99.90;;;;;;4949778;28;20200;-90
2022/07/26 11:23:50;;;;;;;2.47;1.08;;;20.60;99.90;;;;;;4962786;28;20191;-87
2022/07/26 11:26:23;;;;;;;2.65;1.02;;;20.50;99.90;;;;;;4962369;28;20679;-89
2022/07/26 11:28:54;;;;;;;1.73;1.02;;;20.20;99.90;;;;;;4981072;28;20226;-88
2022/07/26 11:31:35;;;;;;;4.18;1.00;;;20.10;99.90;;;;;;4981685;28;20779;-89
2022/07/26 11:34:03;;;;;;;2.22;0.98;;;20.00;99.90;;;;;;4968481;28;20185;-87
2022/07/26 11:36:43;;;;;;;1.52;0.80;;;20.00;99.90;;;;;;4980984;28;20219;-88
2022/07/26 11:39:14;;;;;;;1.60;0.85;;;20.10;99.90;;;;;;4981625;28;20179;-89
2022/07/26 11:41:42;;;;;;;1.23;0.90;;;20.10;99.90;;;;;;4998913;28;20156;-89
2022/07/26 11:44:26;;;;;;;2.60;1.10;;;20.10;99.90;;;;;;4971995;28;20688;-88
2022/07/26 11:46:52;;;;;;;1.40;0.95;;;20.30;99.90;;;;;;4962027;28;20215;-90
2022/07/26 11:49:18;;;;;;;1.77;0.82;;;20.40;99.90;;;;;;4952832;29;20205;-90
2022/07/26 11:51:49;;;;;;;2.35;0.82;;;20.40;99.90;;;;;;4957981;28;20727;-89
2022/07/26 11:54:16;;;;;;;3.35;0.85;;;20.50;99.90;;;;;;4961988;28;20173;-90
2022/07/26 11:56:59;;;;;;;3.17;1.08;;;20.60;99.90;;;;;;4961887;28;20208;-89
2022/07/26 11:59:28;;;;;;;2.75;1.00;;;20.60;99.90;;;;;;4976439;28;20173;-91
2022/07/26 12:01:56;;;;;;;3.00;0.73;;;20.70;99.90;;;;;;4976624;28;20165;-90
2022/07/26 12:04:25;;;;;;;2.95;0.80;;;20.90;99.90;;;;;;4968491;28;20215;-88
2022/07/26 12:06:56;;;;;;;1.30;0.60;;;21.10;99.90;;;;;;4980493;28;20215;-91
2022/07/26 12:09:45;;;;;;;1.42;0.63;;;21.30;99.90;;;;;;4958811;28;20205;-91
2022/07/26 12:12:26;;;;;;;2.17;0.60;;;21.70;99.90;;;;;;4954947;28;20200;-90
2022/07/26 12:15:02;;;;;;;0.80;0.60;;;21.90;99.90;;;;;;4949131;28;20192;-91
2022/07/26 12:17:29;;;;;;;0.65;0.50;;;22.10;99.90;;;;;;4955748;28;20294;-93
2022/07/26 12:19:57;;;;;;;2.17;0.40;;;22.40;99.90;;;;;;4955644;28;20181;-92
2022/07/26 12:22:23;;;;;;;0.60;0.30;;;22.50;98.40;;;;;;4973919;28;20165;-88
2022/07/26 12:24:55;;;;;;;0.93;0.35;;;22.40;97.60;;;;;;4955399;28;20748;-88
2022/07/26 12:27:24;;;;;;;1.50;0.50;;;22.40;97.40;;;;;;4965310;28;20239;-92
2022/07/26 12:29:51;;;;;;;0.80;0.32;;;22.30;97.80;;;;;;4986787;28;20204;-92
2022/07/26 12:32:33;;;;;;;0.47;0.47;;;22.40;97.70;;;;;;4955869;28;20183;-91
2022/07/26 12:35:07;;;;;;;2.00;0.35;;;22.60;96.80;;;;;;4954452;28;20202;-90
2022/07/26 12:37:48;;;;;;;1.27;0.47;;;22.70;95.70;;;;;;4955277;28;20203;-90
2022/07/26 12:40:19;;;;;;;0.90;0.40;;;22.90;96.80;;;;;;4955702;28;20535;-90
2022/07/26 12:42:48;;;;;;;1.33;0.40;;;22.90;94.50;;;;;;4983069;28;20238;-90
2022/07/26 12:45:15;;;;;;;1.50;0.70;;;22.70;96.30;;;;;;4959233;28;20651;-90
2022/07/26 12:47:43;;;;;;;2.08;0.52;;;22.60;96.70;;;;;;4955984;28;20212;-90
2022/07/26 12:50:11;;;;;;;0.80;0.40;;;22.50;96.90;;;;;;4955728;28;20740;-90
2022/07/26 12:52:38;;;;;;;1.58;0.50;;;22.30;96.80;;;;;;4955958;28;20261;-89